Coffey, Missouri
Current Conditions -  °F | °C
As of 9:53 PM on Wednesday 28 Jan 2015 (Local Time) from KLWD Reporting Station
Clear Clear  
Wind Chill:   Ceiling: Unl
Heat Index:   Visibility: 10mi
Dew Point:   Wind: 14mph
Humidity: 73%   Direction: 290°WNW
Pressure: 29.7"   Gusts: NA
Location:  40.11°N, 94.01°W
Report Text: KLWD 290353Z AUTO 29012KT 10SM CLR 07/02 A2970 RMK AO2 SLP064 T00670022
Loading
Personal Weather Stations






























Interactive Weather Map New forecast layout! Learn more

10-Day Weather Forecast

Advertisements
Track Severe Weather on mobile